sensor_id;sensor_type;location;lat;lon;timestamp;P1;durP1;ratioP1;P2;durP2;ratioP2
51872;SDS011;52863;52.504;13.480;2022-09-29T00:01:02;9.00;;;6.00;;
51872;SDS011;52863;52.504;13.480;2022-09-29T00:03:29;7.53;;;6.20;;
51872;SDS011;52863;52.504;13.480;2022-09-29T00:05:59;10.37;;;6.60;;
51872;SDS011;52863;52.504;13.480;2022-09-29T00:08:26;7.60;;;6.20;;
51872;SDS011;52863;52.504;13.480;2022-09-29T00:10:55;9.23;;;6.57;;
51872;SDS011;52863;52.504;13.480;2022-09-29T00:13:24;9.97;;;7.33;;
51872;SDS011;52863;52.504;13.480;2022-09-29T00:15:55;10.93;;;7.50;;
51872;SDS011;52863;52.504;13.480;2022-09-29T00:18:23;9.93;;;7.40;;
51872;SDS011;52863;52.504;13.480;2022-09-29T00:20:56;8.43;;;7.10;;
51872;SDS011;52863;52.504;13.480;2022-09-29T00:23:24;9.97;;;7.53;;
51872;SDS011;52863;52.504;13.480;2022-09-29T00:25:58;10.30;;;7.43;;
51872;SDS011;52863;52.504;13.480;2022-09-29T00:28:24;10.90;;;6.67;;
51872;SDS011;52863;52.504;13.480;2022-09-29T00:30:51;9.50;;;7.20;;
51872;SDS011;52863;52.504;13.480;2022-09-29T00:33:18;9.33;;;7.13;;
51872;SDS011;52863;52.504;13.480;2022-09-29T00:35:54;9.90;;;7.47;;
51872;SDS011;52863;52.504;13.480;2022-09-29T00:38:23;10.30;;;7.40;;
51872;SDS011;52863;52.504;13.480;2022-09-29T00:40:50;8.87;;;7.07;;
51872;SDS011;52863;52.504;13.480;2022-09-29T00:43:18;11.00;;;8.00;;
51872;SDS011;52863;52.504;13.480;2022-09-29T00:45:47;9.43;;;7.17;;
51872;SDS011;52863;52.504;13.480;2022-09-29T00:48:15;10.23;;;7.13;;
51872;SDS011;52863;52.504;13.480;2022-09-29T00:50:47;10.97;;;7.10;;
51872;SDS011;52863;52.504;13.480;2022-09-29T00:53:17;10.17;;;7.10;;
51872;SDS011;52863;52.504;13.480;2022-09-29T00:55:47;9.77;;;7.60;;
51872;SDS011;52863;52.504;13.480;2022-09-29T00:58:18;8.93;;;7.33;;
51872;SDS011;52863;52.504;13.480;2022-09-29T01:00:52;10.57;;;7.50;;
51872;SDS011;52863;52.504;13.480;2022-09-29T01:03:20;11.33;;;7.63;;
51872;SDS011;52863;52.504;13.480;2022-09-29T01:05:50;12.00;;;8.13;;
51872;SDS011;52863;52.504;13.480;2022-09-29T01:08:21;10.00;;;7.97;;
51872;SDS011;52863;52.504;13.480;2022-09-29T01:10:52;12.03;;;7.70;;
51872;SDS011;52863;52.504;13.480;2022-09-29T01:13:20;9.53;;;7.40;;
51872;SDS011;52863;52.504;13.480;2022-09-29T01:15:47;11.33;;;7.50;;
51872;SDS011;52863;52.504;13.480;2022-09-29T01:18:14;12.13;;;7.60;;
51872;SDS011;52863;52.504;13.480;2022-09-29T01:20:42;9.77;;;7.67;;
51872;SDS011;52863;52.504;13.480;2022-09-29T01:23:31;11.17;;;8.03;;
51872;SDS011;52863;52.504;13.480;2022-09-29T01:32:15;11.10;;;8.10;;
51872;SDS011;52863;52.504;13.480;2022-09-29T01:34:49;12.07;;;7.17;;
51872;SDS011;52863;52.504;13.480;2022-09-29T01:37:25;13.83;;;7.43;;
51872;SDS011;52863;52.504;13.480;2022-09-29T01:40:02;12.77;;;8.03;;
51872;SDS011;52863;52.504;13.480;2022-09-29T01:42:35;11.80;;;7.77;;
51872;SDS011;52863;52.504;13.480;2022-09-29T01:45:07;12.37;;;8.63;;
51872;SDS011;52863;52.504;13.480;2022-09-29T01:47:40;11.23;;;8.23;;
51872;SDS011;52863;52.504;13.480;2022-09-29T01:50:09;11.97;;;8.17;;
51872;SDS011;52863;52.504;13.480;2022-09-29T01:52:42;11.60;;;8.27;;
51872;SDS011;52863;52.504;13.480;2022-09-29T01:55:15;11.10;;;8.67;;
51872;SDS011;52863;52.504;13.480;2022-09-29T01:57:44;14.20;;;9.17;;
51872;SDS011;52863;52.504;13.480;2022-09-29T02:00:15;12.73;;;8.80;;
51872;SDS011;52863;52.504;13.480;2022-09-29T02:02:45;11.90;;;8.23;;
51872;SDS011;52863;52.504;13.480;2022-09-29T02:05:16;14.17;;;9.40;;
51872;SDS011;52863;52.504;13.480;2022-09-29T02:07:45;12.37;;;9.23;;
51872;SDS011;52863;52.504;13.480;2022-09-29T02:10:15;15.23;;;9.27;;
51872;SDS011;52863;52.504;13.480;2022-09-29T02:16:36;14.70;;;10.30;;
51872;SDS011;52863;52.504;13.480;2022-09-29T02:19:07;13.70;;;9.70;;
51872;SDS011;52863;52.504;13.480;2022-09-29T02:21:40;12.90;;;9.43;;
51872;SDS011;52863;52.504;13.480;2022-09-29T02:24:07;17.17;;;9.63;;
51872;SDS011;52863;52.504;13.480;2022-09-29T02:26:37;12.57;;;9.00;;
51872;SDS011;52863;52.504;13.480;2022-09-29T02:29:05;12.07;;;8.40;;
51872;SDS011;52863;52.504;13.480;2022-09-29T02:31:32;18.07;;;9.37;;
51872;SDS011;52863;52.504;13.480;2022-09-29T02:34:00;13.80;;;9.57;;
51872;SDS011;52863;52.504;13.480;2022-09-29T02:36:30;17.93;;;9.73;;
51872;SDS011;52863;52.504;13.480;2022-09-29T02:39:07;13.47;;;9.50;;
51872;SDS011;52863;52.504;13.480;2022-09-29T02:41:42;14.53;;;9.50;;
51872;SDS011;52863;52.504;13.480;2022-09-29T02:44:24;16.40;;;9.27;;
51872;SDS011;52863;52.504;13.480;2022-09-29T02:47:07;15.50;;;9.77;;
51872;SDS011;52863;52.504;13.480;2022-09-29T02:49:58;14.83;;;10.57;;
51872;SDS011;52863;52.504;13.480;2022-09-29T02:56:06;14.07;;;10.03;;
51872;SDS011;52863;52.504;13.480;2022-09-29T02:58:40;14.23;;;10.07;;
51872;SDS011;52863;52.504;13.480;2022-09-29T03:01:13;18.93;;;11.43;;
51872;SDS011;52863;52.504;13.480;2022-09-29T03:03:41;16.73;;;10.53;;
51872;SDS011;52863;52.504;13.480;2022-09-29T03:06:08;20.67;;;11.77;;
51872;SDS011;52863;52.504;13.480;2022-09-29T03:08:35;20.60;;;11.80;;
51872;SDS011;52863;52.504;13.480;2022-09-29T03:11:02;16.77;;;11.50;;
51872;SDS011;52863;52.504;13.480;2022-09-29T03:13:30;20.13;;;12.00;;
51872;SDS011;52863;52.504;13.480;2022-09-29T03:15:57;17.23;;;11.73;;
51872;SDS011;52863;52.504;13.480;2022-09-29T03:18:24;15.60;;;11.33;;
51872;SDS011;52863;52.504;13.480;2022-09-29T03:20:52;19.33;;;11.90;;
51872;SDS011;52863;52.504;13.480;2022-09-29T03:23:19;21.20;;;12.47;;
51872;SDS011;52863;52.504;13.480;2022-09-29T03:25:46;18.87;;;11.83;;
51872;SDS011;52863;52.504;13.480;2022-09-29T03:28:13;19.30;;;12.37;;
51872;SDS011;52863;52.504;13.480;2022-09-29T03:30:41;20.20;;;12.53;;
51872;SDS011;52863;52.504;13.480;2022-09-29T03:33:09;16.30;;;11.83;;
51872;SDS011;52863;52.504;13.480;2022-09-29T03:35:37;19.33;;;12.10;;
51872;SDS011;52863;52.504;13.480;2022-09-29T03:38:09;19.37;;;12.27;;
51872;SDS011;52863;52.504;13.480;2022-09-29T03:40:36;17.27;;;11.37;;
51872;SDS011;52863;52.504;13.480;2022-09-29T03:43:03;17.17;;;12.13;;
51872;SDS011;52863;52.504;13.480;2022-09-29T03:45:30;16.77;;;11.73;;
51872;SDS011;52863;52.504;13.480;2022-09-29T03:47:58;16.47;;;11.63;;
51872;SDS011;52863;52.504;13.480;2022-09-29T03:50:24;18.63;;;12.90;;
51872;SDS011;52863;52.504;13.480;2022-09-29T03:52:51;19.00;;;12.97;;
51872;SDS011;52863;52.504;13.480;2022-09-29T03:55:18;18.30;;;12.60;;
51872;SDS011;52863;52.504;13.480;2022-09-29T03:57:45;21.67;;;12.70;;
51872;SDS011;52863;52.504;13.480;2022-09-29T04:00:13;18.33;;;12.53;;
51872;SDS011;52863;52.504;13.480;2022-09-29T04:02:40;19.77;;;12.67;;
51872;SDS011;52863;52.504;13.480;2022-09-29T04:05:08;22.73;;;12.70;;
51872;SDS011;52863;52.504;13.480;2022-09-29T04:07:34;20.53;;;13.50;;
51872;SDS011;52863;52.504;13.480;2022-09-29T04:10:02;19.50;;;12.70;;
51872;SDS011;52863;52.504;13.480;2022-09-29T04:12:29;20.60;;;13.33;;
51872;SDS011;52863;52.504;13.480;2022-09-29T04:14:56;19.73;;;12.83;;
51872;SDS011;52863;52.504;13.480;2022-09-29T04:17:23;20.33;;;14.30;;
51872;SDS011;52863;52.504;13.480;2022-09-29T04:19:51;18.90;;;13.73;;
51872;SDS011;52863;52.504;13.480;2022-09-29T04:22:18;21.23;;;13.90;;
51872;SDS011;52863;52.504;13.480;2022-09-29T04:24:46;20.10;;;14.10;;
51872;SDS011;52863;52.504;13.480;2022-09-29T04:27:13;20.43;;;14.00;;
51872;SDS011;52863;52.504;13.480;2022-09-29T04:29:40;18.07;;;13.60;;
51872;SDS011;52863;52.504;13.480;2022-09-29T04:32:07;21.60;;;14.07;;
51872;SDS011;52863;52.504;13.480;2022-09-29T04:34:34;21.17;;;13.60;;
51872;SDS011;52863;52.504;13.480;2022-09-29T04:37:01;22.90;;;14.80;;
51872;SDS011;52863;52.504;13.480;2022-09-29T04:39:28;19.90;;;13.67;;
51872;SDS011;52863;52.504;13.480;2022-09-29T04:41:55;23.60;;;14.60;;
51872;SDS011;52863;52.504;13.480;2022-09-29T04:44:22;20.83;;;14.27;;
51872;SDS011;52863;52.504;13.480;2022-09-29T04:46:50;22.43;;;14.07;;
51872;SDS011;52863;52.504;13.480;2022-09-29T04:49:18;21.27;;;13.77;;
51872;SDS011;52863;52.504;13.480;2022-09-29T04:51:45;19.80;;;13.30;;
51872;SDS011;52863;52.504;13.480;2022-09-29T04:54:12;22.63;;;14.13;;
51872;SDS011;52863;52.504;13.480;2022-09-29T04:56:39;21.50;;;14.00;;
51872;SDS011;52863;52.504;13.480;2022-09-29T04:59:06;18.70;;;13.93;;
51872;SDS011;52863;52.504;13.480;2022-09-29T05:01:34;19.60;;;12.73;;
51872;SDS011;52863;52.504;13.480;2022-09-29T05:04:01;19.80;;;14.03;;
51872;SDS011;52863;52.504;13.480;2022-09-29T05:06:28;20.83;;;13.23;;
51872;SDS011;52863;52.504;13.480;2022-09-29T05:08:55;19.37;;;12.60;;
51872;SDS011;52863;52.504;13.480;2022-09-29T05:11:22;20.57;;;13.53;;
51872;SDS011;52863;52.504;13.480;2022-09-29T05:13:50;19.90;;;13.70;;
51872;SDS011;52863;52.504;13.480;2022-09-29T05:16:17;20.27;;;13.53;;
51872;SDS011;52863;52.504;13.480;2022-09-29T05:18:44;18.70;;;13.53;;
51872;SDS011;52863;52.504;13.480;2022-09-29T05:21:23;19.37;;;14.17;;
51872;SDS011;52863;52.504;13.480;2022-09-29T05:23:54;20.10;;;13.83;;
51872;SDS011;52863;52.504;13.480;2022-09-29T05:26:21;19.67;;;14.00;;
51872;SDS011;52863;52.504;13.480;2022-09-29T05:28:48;21.07;;;13.83;;
51872;SDS011;52863;52.504;13.480;2022-09-29T05:31:15;20.97;;;13.77;;
51872;SDS011;52863;52.504;13.480;2022-09-29T05:33:42;20.87;;;14.23;;
51872;SDS011;52863;52.504;13.480;2022-09-29T05:36:10;20.47;;;14.30;;
51872;SDS011;52863;52.504;13.480;2022-09-29T05:38:37;18.23;;;13.67;;
51872;SDS011;52863;52.504;13.480;2022-09-29T05:41:04;20.43;;;13.37;;
51872;SDS011;52863;52.504;13.480;2022-09-29T05:43:32;19.93;;;13.17;;
51872;SDS011;52863;52.504;13.480;2022-09-29T05:45:59;18.47;;;12.97;;
51872;SDS011;52863;52.504;13.480;2022-09-29T05:48:27;19.27;;;13.90;;
51872;SDS011;52863;52.504;13.480;2022-09-29T05:50:55;18.33;;;13.30;;
51872;SDS011;52863;52.504;13.480;2022-09-29T05:53:22;19.80;;;13.47;;
51872;SDS011;52863;52.504;13.480;2022-09-29T05:55:49;18.80;;;12.30;;
51872;SDS011;52863;52.504;13.480;2022-09-29T05:58:16;19.97;;;13.77;;
51872;SDS011;52863;52.504;13.480;2022-09-29T06:00:44;20.93;;;14.47;;
51872;SDS011;52863;52.504;13.480;2022-09-29T06:03:11;19.80;;;13.17;;
51872;SDS011;52863;52.504;13.480;2022-09-29T06:05:38;25.20;;;14.67;;
51872;SDS011;52863;52.504;13.480;2022-09-29T06:08:06;22.23;;;13.90;;
51872;SDS011;52863;52.504;13.480;2022-09-29T06:10:37;24.93;;;15.63;;
51872;SDS011;52863;52.504;13.480;2022-09-29T06:13:04;23.53;;;15.03;;
51872;SDS011;52863;52.504;13.480;2022-09-29T06:15:31;26.30;;;16.73;;
51872;SDS011;52863;52.504;13.480;2022-09-29T06:18:00;24.50;;;16.10;;
51872;SDS011;52863;52.504;13.480;2022-09-29T06:20:27;23.73;;;15.47;;
51872;SDS011;52863;52.504;13.480;2022-09-29T06:22:55;24.80;;;15.10;;
51872;SDS011;52863;52.504;13.480;2022-09-29T06:25:22;23.27;;;14.33;;
51872;SDS011;52863;52.504;13.480;2022-09-29T06:27:49;22.77;;;14.70;;
51872;SDS011;52863;52.504;13.480;2022-09-29T06:30:17;21.27;;;13.50;;
51872;SDS011;52863;52.504;13.480;2022-09-29T06:32:46;21.70;;;13.43;;
51872;SDS011;52863;52.504;13.480;2022-09-29T06:35:24;18.57;;;13.53;;
51872;SDS011;52863;52.504;13.480;2022-09-29T06:38:10;19.97;;;13.17;;
51872;SDS011;52863;52.504;13.480;2022-09-29T06:40:38;20.37;;;13.70;;
51872;SDS011;52863;52.504;13.480;2022-09-29T06:43:05;20.33;;;13.77;;
51872;SDS011;52863;52.504;13.480;2022-09-29T06:45:32;21.03;;;13.80;;
51872;SDS011;52863;52.504;13.480;2022-09-29T06:47:59;18.80;;;13.80;;
51872;SDS011;52863;52.504;13.480;2022-09-29T06:50:29;20.00;;;13.13;;
51872;SDS011;52863;52.504;13.480;2022-09-29T06:52:57;21.07;;;13.73;;
51872;SDS011;52863;52.504;13.480;2022-09-29T06:55:30;22.67;;;13.87;;
51872;SDS011;52863;52.504;13.480;2022-09-29T06:57:57;21.97;;;14.40;;
51872;SDS011;52863;52.504;13.480;2022-09-29T07:00:29;20.23;;;13.00;;
51872;SDS011;52863;52.504;13.480;2022-09-29T07:03:06;21.60;;;14.50;;
51872;SDS011;52863;52.504;13.480;2022-09-29T07:05:40;23.50;;;13.33;;
51872;SDS011;52863;52.504;13.480;2022-09-29T07:08:27;19.37;;;12.90;;
51872;SDS011;52863;52.504;13.480;2022-09-29T07:10:54;20.57;;;14.57;;
51872;SDS011;52863;52.504;13.480;2022-09-29T07:13:22;20.73;;;13.57;;
51872;SDS011;52863;52.504;13.480;2022-09-29T07:15:51;20.60;;;14.27;;
51872;SDS011;52863;52.504;13.480;2022-09-29T07:18:20;18.73;;;13.20;;
51872;SDS011;52863;52.504;13.480;2022-09-29T07:20:48;21.30;;;14.20;;
51872;SDS011;52863;52.504;13.480;2022-09-29T07:23:17;20.00;;;14.30;;
51872;SDS011;52863;52.504;13.480;2022-09-29T07:25:47;20.43;;;14.53;;
51872;SDS011;52863;52.504;13.480;2022-09-29T07:28:18;19.47;;;14.00;;
51872;SDS011;52863;52.504;13.480;2022-09-29T07:30:45;21.63;;;14.43;;
51872;SDS011;52863;52.504;13.480;2022-09-29T07:33:12;24.90;;;15.27;;
51872;SDS011;52863;52.504;13.480;2022-09-29T07:35:39;24.40;;;15.47;;
51872;SDS011;52863;52.504;13.480;2022-09-29T07:38:06;23.47;;;15.17;;
51872;SDS011;52863;52.504;13.480;2022-09-29T07:40:33;19.73;;;14.40;;
51872;SDS011;52863;52.504;13.480;2022-09-29T07:43:00;22.20;;;15.80;;
51872;SDS011;52863;52.504;13.480;2022-09-29T07:45:28;27.07;;;16.60;;
51872;SDS011;52863;52.504;13.480;2022-09-29T07:47:55;26.00;;;15.93;;
51872;SDS011;52863;52.504;13.480;2022-09-29T07:50:22;23.27;;;15.87;;
51872;SDS011;52863;52.504;13.480;2022-09-29T07:52:49;22.23;;;14.97;;
51872;SDS011;52863;52.504;13.480;2022-09-29T07:55:17;21.80;;;14.80;;
51872;SDS011;52863;52.504;13.480;2022-09-29T07:57:46;23.60;;;15.67;;
51872;SDS011;52863;52.504;13.480;2022-09-29T08:00:13;22.87;;;16.50;;
51872;SDS011;52863;52.504;13.480;2022-09-29T08:02:42;22.80;;;15.17;;
51872;SDS011;52863;52.504;13.480;2022-09-29T08:05:09;21.97;;;15.23;;
51872;SDS011;52863;52.504;13.480;2022-09-29T08:07:36;24.63;;;16.47;;
51872;SDS011;52863;52.504;13.480;2022-09-29T08:10:04;22.60;;;15.10;;
51872;SDS011;52863;52.504;13.480;2022-09-29T08:12:42;19.63;;;14.83;;
51872;SDS011;52863;52.504;13.480;2022-09-29T08:15:09;21.07;;;15.43;;
51872;SDS011;52863;52.504;13.480;2022-09-29T08:17:36;21.53;;;15.30;;
51872;SDS011;52863;52.504;13.480;2022-09-29T08:20:04;22.23;;;15.43;;
51872;SDS011;52863;52.504;13.480;2022-09-29T08:22:31;21.17;;;15.63;;
51872;SDS011;52863;52.504;13.480;2022-09-29T08:24:58;20.20;;;15.17;;
51872;SDS011;52863;52.504;13.480;2022-09-29T08:27:25;19.87;;;14.73;;
51872;SDS011;52863;52.504;13.480;2022-09-29T08:29:53;23.07;;;15.23;;
51872;SDS011;52863;52.504;13.480;2022-09-29T08:32:29;21.80;;;15.70;;
51872;SDS011;52863;52.504;13.480;2022-09-29T08:35:05;18.90;;;14.47;;
51872;SDS011;52863;52.504;13.480;2022-09-29T08:37:32;19.60;;;15.00;;
51872;SDS011;52863;52.504;13.480;2022-09-29T08:40:00;19.60;;;14.50;;
51872;SDS011;52863;52.504;13.480;2022-09-29T08:42:29;18.90;;;13.37;;
51872;SDS011;52863;52.504;13.480;2022-09-29T08:45:15;20.87;;;13.47;;
51872;SDS011;52863;52.504;13.480;2022-09-29T08:47:49;22.50;;;13.67;;
51872;SDS011;52863;52.504;13.480;2022-09-29T08:50:19;17.90;;;13.17;;
51872;SDS011;52863;52.504;13.480;2022-09-29T08:52:52;23.00;;;14.90;;
51872;SDS011;52863;52.504;13.480;2022-09-29T08:55:25;20.77;;;14.47;;
51872;SDS011;52863;52.504;13.480;2022-09-29T08:58:02;16.23;;;12.43;;
51872;SDS011;52863;52.504;13.480;2022-09-29T09:00:32;16.10;;;13.30;;
51872;SDS011;52863;52.504;13.480;2022-09-29T09:03:12;16.67;;;12.97;;
51872;SDS011;52863;52.504;13.480;2022-09-29T09:05:49;17.90;;;13.40;;
51872;SDS011;52863;52.504;13.480;2022-09-29T09:08:36;16.17;;;13.40;;
51872;SDS011;52863;52.504;13.480;2022-09-29T09:11:20;18.17;;;12.23;;
51872;SDS011;52863;52.504;13.480;2022-09-29T09:14:03;17.93;;;13.13;;
51872;SDS011;52863;52.504;13.480;2022-09-29T09:16:46;17.57;;;12.87;;
51872;SDS011;52863;52.504;13.480;2022-09-29T09:22:40;16.73;;;12.27;;
51872;SDS011;52863;52.504;13.480;2022-09-29T09:25:17;15.53;;;11.97;;
51872;SDS011;52863;52.504;13.480;2022-09-29T09:27:52;17.83;;;12.73;;
51872;SDS011;52863;52.504;13.480;2022-09-29T09:30:28;17.57;;;12.03;;
51872;SDS011;52863;52.504;13.480;2022-09-29T09:33:01;16.17;;;11.47;;
51872;SDS011;52863;52.504;13.480;2022-09-29T09:35:31;13.27;;;11.23;;
51872;SDS011;52863;52.504;13.480;2022-09-29T09:38:18;14.10;;;10.83;;
51872;SDS011;52863;52.504;13.480;2022-09-29T09:40:49;13.93;;;11.00;;
51872;SDS011;52863;52.504;13.480;2022-09-29T09:43:19;14.27;;;12.17;;
51872;SDS011;52863;52.504;13.480;2022-09-29T09:45:54;24.53;;;20.00;;
51872;SDS011;52863;52.504;13.480;2022-09-29T09:48:28;15.40;;;11.37;;
51872;SDS011;52863;52.504;13.480;2022-09-29T09:50:58;13.03;;;10.63;;
51872;SDS011;52863;52.504;13.480;2022-09-29T09:53:27;14.40;;;10.67;;
51872;SDS011;52863;52.504;13.480;2022-09-29T09:56:01;11.50;;;9.73;;
51872;SDS011;52863;52.504;13.480;2022-09-29T09:58:42;11.57;;;10.23;;
51872;SDS011;52863;52.504;13.480;2022-09-29T10:01:29;10.40;;;9.10;;
51872;SDS011;52863;52.504;13.480;2022-09-29T10:03:56;11.20;;;9.37;;
51872;SDS011;52863;52.504;13.480;2022-09-29T10:06:24;10.67;;;9.43;;
51872;SDS011;52863;52.504;13.480;2022-09-29T10:08:52;18.33;;;11.10;;
51872;SDS011;52863;52.504;13.480;2022-09-29T10:11:21;9.77;;;8.73;;
51872;SDS011;52863;52.504;13.480;2022-09-29T10:13:49;10.37;;;8.80;;
51872;SDS011;52863;52.504;13.480;2022-09-29T10:16:24;8.87;;;7.97;;
51872;SDS011;52863;52.504;13.480;2022-09-29T10:18:56;9.40;;;8.23;;
51872;SDS011;52863;52.504;13.480;2022-09-29T10:21:34;10.03;;;7.60;;
51872;SDS011;52863;52.504;13.480;2022-09-29T10:24:03;9.33;;;8.07;;
51872;SDS011;52863;52.504;13.480;2022-09-29T10:26:32;9.80;;;7.67;;
51872;SDS011;52863;52.504;13.480;2022-09-29T10:29:15;8.80;;;7.97;;
51872;SDS011;52863;52.504;13.480;2022-09-29T10:31:56;8.87;;;7.57;;
51872;SDS011;52863;52.504;13.480;2022-09-29T10:34:25;9.80;;;7.57;;
51872;SDS011;52863;52.504;13.480;2022-09-29T10:36:56;9.37;;;8.43;;
51872;SDS011;52863;52.504;13.480;2022-09-29T10:39:30;8.60;;;7.67;;
51872;SDS011;52863;52.504;13.480;2022-09-29T10:41:58;8.10;;;7.30;;
51872;SDS011;52863;52.504;13.480;2022-09-29T10:44:29;8.23;;;7.10;;
51872;SDS011;52863;52.504;13.480;2022-09-29T10:46:58;9.97;;;7.97;;
51872;SDS011;52863;52.504;13.480;2022-09-29T10:49:27;8.10;;;7.00;;
51872;SDS011;52863;52.504;13.480;2022-09-29T10:51:56;9.67;;;7.60;;
51872;SDS011;52863;52.504;13.480;2022-09-29T10:54:26;10.03;;;7.73;;
51872;SDS011;52863;52.504;13.480;2022-09-29T10:56:57;9.30;;;7.67;;
51872;SDS011;52863;52.504;13.480;2022-09-29T10:59:24;9.97;;;7.47;;
51872;SDS011;52863;52.504;13.480;2022-09-29T11:01:53;8.17;;;7.37;;
51872;SDS011;52863;52.504;13.480;2022-09-29T11:04:23;9.43;;;7.23;;
51872;SDS011;52863;52.504;13.480;2022-09-29T11:07:04;8.07;;;6.77;;
51872;SDS011;52863;52.504;13.480;2022-09-29T11:09:36;9.77;;;6.23;;
51872;SDS011;52863;52.504;13.480;2022-09-29T11:12:23;8.50;;;7.57;;
51872;SDS011;52863;52.504;13.480;2022-09-29T11:15:20;7.90;;;6.77;;
51872;SDS011;52863;52.504;13.480;2022-09-29T11:17:52;7.70;;;6.47;;
51872;SDS011;52863;52.504;13.480;2022-09-29T11:20:19;7.97;;;6.10;;
51872;SDS011;52863;52.504;13.480;2022-09-29T11:23:03;9.20;;;7.13;;
51872;SDS011;52863;52.504;13.480;2022-09-29T11:28:40;7.07;;;6.37;;
51872;SDS011;52863;52.504;13.480;2022-09-29T11:34:05;7.47;;;5.53;;
51872;SDS011;52863;52.504;13.480;2022-09-29T11:36:45;7.77;;;5.77;;
51872;SDS011;52863;52.504;13.480;2022-09-29T11:39:23;6.87;;;5.43;;
51872;SDS011;52863;52.504;13.480;2022-09-29T11:42:04;7.17;;;6.40;;
51872;SDS011;52863;52.504;13.480;2022-09-29T11:44:51;7.40;;;6.07;;
51872;SDS011;52863;52.504;13.480;2022-09-29T11:47:30;6.33;;;5.73;;
51872;SDS011;52863;52.504;13.480;2022-09-29T11:50:17;8.57;;;6.60;;
51872;SDS011;52863;52.504;13.480;2022-09-29T11:52:53;8.20;;;6.43;;
51872;SDS011;52863;52.504;13.480;2022-09-29T11:55:33;7.00;;;6.30;;
51872;SDS011;52863;52.504;13.480;2022-09-29T11:58:15;6.27;;;5.60;;
51872;SDS011;52863;52.504;13.480;2022-09-29T12:01:07;8.37;;;5.90;;
51872;SDS011;52863;52.504;13.480;2022-09-29T12:03:47;6.97;;;5.30;;
51872;SDS011;52863;52.504;13.480;2022-09-29T12:06:34;6.07;;;5.47;;
51872;SDS011;52863;52.504;13.480;2022-09-29T12:09:10;6.20;;;5.60;;
51872;SDS011;52863;52.504;13.480;2022-09-29T12:11:52;9.70;;;6.00;;
51872;SDS011;52863;52.504;13.480;2022-09-29T12:15:00;8.73;;;5.57;;
51872;SDS011;52863;52.504;13.480;2022-09-29T12:17:39;7.27;;;5.90;;
51872;SDS011;52863;52.504;13.480;2022-09-29T12:20:13;7.07;;;5.40;;
51872;SDS011;52863;52.504;13.480;2022-09-29T12:22:43;7.73;;;5.83;;
51872;SDS011;52863;52.504;13.480;2022-09-29T12:25:12;7.43;;;5.37;;
51872;SDS011;52863;52.504;13.480;2022-09-29T12:27:42;6.90;;;5.47;;
51872;SDS011;52863;52.504;13.480;2022-09-29T12:30:13;5.30;;;4.80;;
51872;SDS011;52863;52.504;13.480;2022-09-29T12:32:46;6.73;;;5.43;;
51872;SDS011;52863;52.504;13.480;2022-09-29T12:35:18;6.13;;;5.40;;
51872;SDS011;52863;52.504;13.480;2022-09-29T12:37:53;6.73;;;4.53;;
51872;SDS011;52863;52.504;13.480;2022-09-29T12:40:26;6.07;;;5.03;;
51872;SDS011;52863;52.504;13.480;2022-09-29T12:43:03;4.70;;;4.07;;
51872;SDS011;52863;52.504;13.480;2022-09-29T12:45:38;4.97;;;4.23;;
51872;SDS011;52863;52.504;13.480;2022-09-29T12:48:28;5.47;;;4.33;;
51872;SDS011;52863;52.504;13.480;2022-09-29T12:51:07;6.90;;;4.80;;
51872;SDS011;52863;52.504;13.480;2022-09-29T12:53:36;5.17;;;4.33;;
51872;SDS011;52863;52.504;13.480;2022-09-29T12:56:09;5.43;;;4.63;;
51872;SDS011;52863;52.504;13.480;2022-09-29T12:58:40;5.30;;;4.50;;
51872;SDS011;52863;52.504;13.480;2022-09-29T13:01:17;5.10;;;4.60;;
51872;SDS011;52863;52.504;13.480;2022-09-29T13:04:02;5.70;;;4.10;;
51872;SDS011;52863;52.504;13.480;2022-09-29T13:07:06;5.10;;;4.10;;
51872;SDS011;52863;52.504;13.480;2022-09-29T13:09:59;5.27;;;4.10;;
51872;SDS011;52863;52.504;13.480;2022-09-29T13:12:54;3.57;;;3.20;;
51872;SDS011;52863;52.504;13.480;2022-09-29T13:15:54;6.77;;;3.90;;
51872;SDS011;52863;52.504;13.480;2022-09-29T13:18:36;4.47;;;3.80;;
51872;SDS011;52863;52.504;13.480;2022-09-29T13:21:47;4.83;;;3.47;;
51872;SDS011;52863;52.504;13.480;2022-09-29T13:24:35;4.33;;;3.90;;
51872;SDS011;52863;52.504;13.480;2022-09-29T13:27:21;3.47;;;3.13;;
51872;SDS011;52863;52.504;13.480;2022-09-29T13:29:56;3.80;;;3.07;;
51872;SDS011;52863;52.504;13.480;2022-09-29T13:32:29;4.00;;;3.70;;
51872;SDS011;52863;52.504;13.480;2022-09-29T13:34:57;5.37;;;3.40;;
51872;SDS011;52863;52.504;13.480;2022-09-29T13:37:28;5.80;;;3.70;;
51872;SDS011;52863;52.504;13.480;2022-09-29T13:40:01;3.83;;;3.00;;
51872;SDS011;52863;52.504;13.480;2022-09-29T13:42:37;3.80;;;3.20;;
51872;SDS011;52863;52.504;13.480;2022-09-29T13:45:13;3.23;;;2.93;;
51872;SDS011;52863;52.504;13.480;2022-09-29T13:47:45;5.80;;;2.63;;
51872;SDS011;52863;52.504;13.480;2022-09-29T13:56:08;2.63;;;1.90;;
51872;SDS011;52863;52.504;13.480;2022-09-29T13:58:39;3.13;;;2.20;;
51872;SDS011;52863;52.504;13.480;2022-09-29T14:01:30;2.33;;;2.13;;
51872;SDS011;52863;52.504;13.480;2022-09-29T14:07:03;1.77;;;1.63;;
51872;SDS011;52863;52.504;13.480;2022-09-29T14:09:33;2.50;;;1.80;;
51872;SDS011;52863;52.504;13.480;2022-09-29T14:12:04;2.60;;;1.70;;
51872;SDS011;52863;52.504;13.480;2022-09-29T14:14:35;1.67;;;1.30;;
51872;SDS011;52863;52.504;13.480;2022-09-29T14:17:07;2.03;;;1.43;;
51872;SDS011;52863;52.504;13.480;2022-09-29T14:19:44;2.77;;;2.40;;
51872;SDS011;52863;52.504;13.480;2022-09-29T14:28:20;1.93;;;1.50;;
51872;SDS011;52863;52.504;13.480;2022-09-29T14:30:49;2.43;;;1.40;;
51872;SDS011;52863;52.504;13.480;2022-09-29T14:33:18;1.90;;;1.37;;
51872;SDS011;52863;52.504;13.480;2022-09-29T14:35:52;1.97;;;1.70;;
51872;SDS011;52863;52.504;13.480;2022-09-29T14:38:28;1.93;;;1.70;;
51872;SDS011;52863;52.504;13.480;2022-09-29T14:40:57;2.17;;;1.30;;
51872;SDS011;52863;52.504;13.480;2022-09-29T14:43:25;12.77;;;8.90;;
51872;SDS011;52863;52.504;13.480;2022-09-29T14:46:12;3.20;;;2.63;;
51872;SDS011;52863;52.504;13.480;2022-09-29T14:49:30;2.07;;;1.87;;
51872;SDS011;52863;52.504;13.480;2022-09-29T14:52:19;1.90;;;1.63;;
51872;SDS011;52863;52.504;13.480;2022-09-29T14:54:57;3.80;;;1.70;;
51872;SDS011;52863;52.504;13.480;2022-09-29T14:57:35;1.50;;;1.40;;
51872;SDS011;52863;52.504;13.480;2022-09-29T15:00:21;1.80;;;1.30;;
51872;SDS011;52863;52.504;13.480;2022-09-29T15:02:54;1.50;;;1.40;;
51872;SDS011;52863;52.504;13.480;2022-09-29T15:05:30;1.50;;;1.30;;
51872;SDS011;52863;52.504;13.480;2022-09-29T15:07:59;1.97;;;1.40;;
51872;SDS011;52863;52.504;13.480;2022-09-29T15:10:27;1.60;;;1.50;;
51872;SDS011;52863;52.504;13.480;2022-09-29T15:15:42;2.77;;;1.20;;
51872;SDS011;52863;52.504;13.480;2022-09-29T15:18:16;1.93;;;1.60;;
51872;SDS011;52863;52.504;13.480;2022-09-29T15:20:54;1.70;;;1.60;;
51872;SDS011;52863;52.504;13.480;2022-09-29T15:26:10;3.40;;;1.90;;
51872;SDS011;52863;52.504;13.480;2022-09-29T15:28:39;1.90;;;1.67;;
51872;SDS011;52863;52.504;13.480;2022-09-29T15:31:08;3.73;;;1.87;;
51872;SDS011;52863;52.504;13.480;2022-09-29T15:33:41;2.70;;;2.30;;